»·PEaware :: N58NG KIFP-KSBP

N58NG :: KIFP-KSBP

FLIGHT INFORMATION

Flight Status: Arrived
Operator: Privately registered:
United States
More flights under this callsign
Pilot: Chris W. (15214)
Aircraft: PILATUS PC-12 EAGLE
(PC12)
More flights by this aircraft type
Origin: KIFP Laughlin/Bullhead Intl
United States
Destination: KSBP San Luis Co Regl
United States
More flights between these airports :: More routes between these airports
Route: +EED HEC PMD WYNNR
File this flight plan on PilotEdge
Remarks:
Altitude:
(Current/Filed)
22,000ft
Speed:
(Current/Filed)
200kts
Departed: 27-Jul-18 04:07 PM
Arrived: 27-Jul-18 05:34 PM
Distance/Time
Traveled:
298nm/1:27
Distance/Time
To Go:
Arrived

Flight Plot

Page will automatically refresh every two minutes.

Flight plan parsing failed; only flown route is shown


Map Options




Map Legend


Flown Route
Filed Route
Departure Airport
Arrival Airport
Navaid (VOR, NDB)
Fix

Horizontal Profiles

Position Reports

Time Latitude Longitude Heading Altitude Ground
Speed
27-Jul-18 15:52 35.159758 -114.556367 266 698ft 0kts
27-Jul-18 15:53 35.159758 -114.556367 266 698ft 0kts
27-Jul-18 15:54 35.159758 -114.556367 266 698ft 0kts
27-Jul-18 15:55 35.159758 -114.556367 266 698ft 0kts
27-Jul-18 15:57 35.159758 -114.556367 266 698ft 0kts
27-Jul-18 15:58 35.159758 -114.556367 266 698ft 0kts
27-Jul-18 15:59 35.159758 -114.556367 266 698ft 0kts
27-Jul-18 16:00 35.159758 -114.556367 266 698ft 0kts
27-Jul-18 16:01 35.159758 -114.556367 266 698ft 0kts
27-Jul-18 16:02 35.159758 -114.556368 266 698ft 0kts
27-Jul-18 16:03 35.159758 -114.556368 266 698ft 0kts
27-Jul-18 16:04 35.159759 -114.556411 269 698ft 0kts
27-Jul-18 16:05 35.159525 -114.557468 265 698ft 10kts
27-Jul-18 16:06 35.162559 -114.558548 355 698ft 20kts
27-Jul-18 16:07 35.166175 -114.559105 300 698ft 0kts
27-Jul-18 16:08 35.161647 -114.559861 176 699ft 85kts
27-Jul-18 16:09 35.127715 -114.554792 164 1575ft 154kts
27-Jul-18 16:10 35.086236 -114.543315 170 3558ft 157kts
27-Jul-18 16:11 35.041645 -114.533539 171 4975ft 185kts
27-Jul-18 16:12 34.998058 -114.523983 171 6784ft 174kts
27-Jul-18 16:13 34.949465 -114.513313 171 8475ft 183kts
27-Jul-18 16:14 34.898640 -114.502173 171 10085ft 193kts
27-Jul-18 16:15 34.845867 -114.490623 170 11673ft 200kts
27-Jul-18 16:16 34.792996 -114.484823 200 13179ft 203kts
27-Jul-18 16:17 34.766801 -114.535290 273 14660ft 194kts
27-Jul-18 16:18 34.768207 -114.600760 273 16081ft 196kts
27-Jul-18 16:19 34.769750 -114.667237 273 17377ft 199kts
27-Jul-18 16:20 34.771223 -114.734526 273 18609ft 201kts
27-Jul-18 16:21 34.772697 -114.802602 273 19721ft 203kts
27-Jul-18 16:22 34.774105 -114.869639 273 20672ft 206kts
27-Jul-18 16:23 34.775273 -114.927288 272 21445ft 207kts
27-Jul-18 16:24 34.776529 -114.999129 271 21847ft 227kts
27-Jul-18 16:25 34.777903 -115.079173 269 21845ft 243kts
27-Jul-18 16:26 34.779474 -115.162492 268 21844ft 250kts
27-Jul-18 16:27 34.780992 -115.247980 267 21845ft 256kts
27-Jul-18 16:28 34.782488 -115.334859 267 21844ft 258kts
27-Jul-18 16:29 34.783926 -115.422079 267 21844ft 259kts
27-Jul-18 16:30 34.785298 -115.509481 267 21881ft 258kts
27-Jul-18 16:31 34.786548 -115.593540 267 21935ft 257kts
27-Jul-18 16:32 34.787580 -115.666197 266 21984ft 257kts
27-Jul-18 16:33 34.788602 -115.741153 266 22001ft 258kts
27-Jul-18 16:34 34.789740 -115.828414 267 22001ft 259kts
27-Jul-18 16:35 34.790817 -115.915997 266 22001ft 259kts
27-Jul-18 16:36 34.791826 -116.003204 266 22000ft 259kts
27-Jul-18 16:37 34.792775 -116.090773 266 22000ft 259kts
27-Jul-18 16:38 34.793653 -116.177724 266 21998ft 259kts
27-Jul-18 16:39 34.794474 -116.264964 267 21972ft 260kts
27-Jul-18 16:40 34.795241 -116.353012 267 21945ft 260kts
27-Jul-18 16:41 34.795910 -116.436694 267 21927ft 260kts
27-Jul-18 16:42 34.790283 -116.523502 260 21926ft 257kts
27-Jul-18 16:43 34.782310 -116.605140 259 21926ft 257kts
27-Jul-18 16:44 34.774423 -116.685259 259 21928ft 257kts
27-Jul-18 16:45 34.766034 -116.770065 259 21928ft 257kts
27-Jul-18 16:46 34.757523 -116.855478 259 21927ft 257kts
27-Jul-18 16:47 34.748917 -116.941229 259 21946ft 256kts
27-Jul-18 16:48 34.740272 -117.026706 260 21953ft 253kts
27-Jul-18 16:49 34.731705 -117.110733 260 21991ft 249kts
27-Jul-18 16:50 34.723233 -117.193181 260 22006ft 247kts
27-Jul-18 16:51 34.714684 -117.275906 260 22008ft 247kts
27-Jul-18 16:52 34.706076 -117.358708 260 22008ft 247kts
27-Jul-18 16:53 34.697430 -117.441350 260 22008ft 247kts
27-Jul-18 16:54 34.688878 -117.522550 260 22007ft 246kts
27-Jul-18 16:55 34.680146 -117.604917 260 22007ft 246kts
27-Jul-18 16:56 34.671604 -117.685025 259 21995ft 248kts
27-Jul-18 16:57 34.662905 -117.766187 259 21981ft 249kts
27-Jul-18 16:58 34.653870 -117.849940 259 21969ft 251kts
27-Jul-18 16:59 34.644743 -117.933940 259 21980ft 251kts
27-Jul-18 17:00 34.635549 -118.017906 259 21991ft 251kts
27-Jul-18 17:01 34.637989 -118.093660 281 22000ft 256kts
27-Jul-18 17:02 34.657126 -118.177222 282 21996ft 256kts
27-Jul-18 17:03 34.676661 -118.260528 282 21993ft 257kts
27-Jul-18 17:04 34.696044 -118.343330 282 21990ft 257kts
27-Jul-18 17:05 34.715442 -118.426504 282 21989ft 256kts
27-Jul-18 17:06 34.734334 -118.507790 282 21998ft 256kts
27-Jul-18 17:07 34.753555 -118.590769 282 22029ft 255kts
27-Jul-18 17:08 34.771235 -118.667362 281 22082ft 254kts
27-Jul-18 17:09 34.789624 -118.747389 281 22123ft 255kts
27-Jul-18 17:10 34.809209 -118.832607 282 21320ft 272kts
27-Jul-18 17:11 34.828820 -118.916953 283 19886ft 267kts
27-Jul-18 17:12 34.848440 -119.003214 285 18390ft 266kts
27-Jul-18 17:13 34.868214 -119.090791 285 16888ft 276kts
27-Jul-18 17:14 34.887756 -119.177432 286 15468ft 284kts
27-Jul-18 17:15 34.908744 -119.270496 286 13962ft 286kts
27-Jul-18 17:16 34.929442 -119.362735 286 12472ft 285kts
27-Jul-18 17:17 34.949513 -119.451860 286 10966ft 267kts
27-Jul-18 17:18 34.968635 -119.538340 285 9666ft 265kts
27-Jul-18 17:19 34.987684 -119.624143 285 8462ft 260kts
27-Jul-18 17:20 35.008549 -119.719160 285 7984ft 246kts
27-Jul-18 17:21 35.026192 -119.799771 285 7990ft 246kts
27-Jul-18 17:22 35.040993 -119.867149 285 7990ft 247kts
27-Jul-18 17:23 35.058642 -119.947808 285 7993ft 246kts
27-Jul-18 17:24 35.076234 -120.028526 285 8002ft 246kts
27-Jul-18 17:25 35.094270 -120.109906 285 7640ft 259kts
27-Jul-18 17:26 35.114945 -120.204088 285 6130ft 240kts
27-Jul-18 17:27 35.117799 -120.270848 272 5054ft 236kts
27-Jul-18 17:28 35.118402 -120.350193 272 3757ft 232kts
27-Jul-18 17:29 35.118847 -120.422021 272 3321ft 206kts
27-Jul-18 17:30 35.142607 -120.479996 307 3039ft 183kts
27-Jul-18 17:31 35.171330 -120.526983 307 2779ft 188kts
27-Jul-18 17:32 35.198175 -120.571893 305 2132ft 112kts
27-Jul-18 17:33 35.213691 -120.599658 305 1118ft 92kts
27-Jul-18 17:34 35.228275 -120.625048 305 446ft 91kts
27-Jul-18 17:35 35.237550 -120.639915 4 216ft 0kts

Navigation Log

Ident Type
Flight plan parsing failed, navigation log unavailable